sensor_id;sensor_type;location;lat;lon;timestamp;P1;durP1;ratioP1;P2;durP2;ratioP2
70908;SDS011;58554;52.006;5.926;2022-10-18T00:00:12;30.45;;;15.95;;
70908;SDS011;58554;52.006;5.926;2022-10-18T00:02:39;26.90;;;15.43;;
70908;SDS011;58554;52.006;5.926;2022-10-18T00:05:06;26.60;;;15.20;;
70908;SDS011;58554;52.006;5.926;2022-10-18T00:07:34;30.23;;;15.20;;
70908;SDS011;58554;52.006;5.926;2022-10-18T00:10:00;22.70;;;14.47;;
70908;SDS011;58554;52.006;5.926;2022-10-18T00:12:30;25.37;;;14.83;;
70908;SDS011;58554;52.006;5.926;2022-10-18T00:14:58;27.63;;;15.80;;
70908;SDS011;58554;52.006;5.926;2022-10-18T00:17:24;23.92;;;15.73;;
70908;SDS011;58554;52.006;5.926;2022-10-18T00:19:51;25.03;;;15.57;;
70908;SDS011;58554;52.006;5.926;2022-10-18T00:22:18;23.65;;;15.55;;
70908;SDS011;58554;52.006;5.926;2022-10-18T00:24:44;25.00;;;16.00;;
70908;SDS011;58554;52.006;5.926;2022-10-18T00:27:11;24.77;;;15.73;;
70908;SDS011;58554;52.006;5.926;2022-10-18T00:29:40;25.90;;;15.63;;
70908;SDS011;58554;52.006;5.926;2022-10-18T00:32:06;23.48;;;15.90;;
70908;SDS011;58554;52.006;5.926;2022-10-18T00:34:33;29.08;;;16.27;;
70908;SDS011;58554;52.006;5.926;2022-10-18T00:36:59;29.23;;;15.40;;
70908;SDS011;58554;52.006;5.926;2022-10-18T00:39:25;27.95;;;15.35;;
70908;SDS011;58554;52.006;5.926;2022-10-18T00:41:52;32.50;;;15.73;;
70908;SDS011;58554;52.006;5.926;2022-10-18T00:47:29;24.33;;;15.23;;
70908;SDS011;58554;52.006;5.926;2022-10-18T00:50:00;33.15;;;15.38;;
70908;SDS011;58554;52.006;5.926;2022-10-18T00:52:31;28.03;;;15.40;;
70908;SDS011;58554;52.006;5.926;2022-10-18T00:55:03;24.25;;;15.55;;
70908;SDS011;58554;52.006;5.926;2022-10-18T00:57:32;22.03;;;14.63;;
70908;SDS011;58554;52.006;5.926;2022-10-18T01:00:00;23.20;;;16.17;;
70908;SDS011;58554;52.006;5.926;2022-10-18T01:02:31;24.50;;;15.63;;
70908;SDS011;58554;52.006;5.926;2022-10-18T01:04:58;22.53;;;15.73;;
70908;SDS011;58554;52.006;5.926;2022-10-18T01:07:32;25.40;;;16.47;;
70908;SDS011;58554;52.006;5.926;2022-10-18T01:10:21;25.17;;;16.83;;
70908;SDS011;58554;52.006;5.926;2022-10-18T01:13:03;23.40;;;16.33;;
70908;SDS011;58554;52.006;5.926;2022-10-18T01:15:54;27.38;;;15.70;;
70908;SDS011;58554;52.006;5.926;2022-10-18T01:18:26;26.30;;;17.08;;
70908;SDS011;58554;52.006;5.926;2022-10-18T01:21:06;23.90;;;16.20;;
70908;SDS011;58554;52.006;5.926;2022-10-18T01:23:56;28.67;;;17.37;;
70908;SDS011;58554;52.006;5.926;2022-10-18T01:27:04;25.20;;;16.83;;
70908;SDS011;58554;52.006;5.926;2022-10-18T01:30:01;25.70;;;16.70;;
70908;SDS011;58554;52.006;5.926;2022-10-18T01:33:06;30.10;;;17.73;;
70908;SDS011;58554;52.006;5.926;2022-10-18T01:35:53;27.77;;;17.33;;
70908;SDS011;58554;52.006;5.926;2022-10-18T01:38:28;27.00;;;16.87;;
70908;SDS011;58554;52.006;5.926;2022-10-18T01:40:59;27.47;;;18.27;;
70908;SDS011;58554;52.006;5.926;2022-10-18T01:43:28;27.30;;;17.93;;
70908;SDS011;58554;52.006;5.926;2022-10-18T01:45:58;27.15;;;17.52;;
70908;SDS011;58554;52.006;5.926;2022-10-18T01:48:29;28.90;;;18.30;;
70908;SDS011;58554;52.006;5.926;2022-10-18T01:50:57;28.30;;;18.23;;
70908;SDS011;58554;52.006;5.926;2022-10-18T01:53:24;31.60;;;18.23;;
70908;SDS011;58554;52.006;5.926;2022-10-18T01:56:08;27.50;;;18.35;;
70908;SDS011;58554;52.006;5.926;2022-10-18T02:02:06;26.53;;;17.20;;
70908;SDS011;58554;52.006;5.926;2022-10-18T02:04:48;27.60;;;17.30;;
70908;SDS011;58554;52.006;5.926;2022-10-18T02:07:22;26.40;;;17.50;;
70908;SDS011;58554;52.006;5.926;2022-10-18T02:09:59;26.30;;;17.30;;
70908;SDS011;58554;52.006;5.926;2022-10-18T02:12:35;27.53;;;17.00;;
70908;SDS011;58554;52.006;5.926;2022-10-18T02:15:07;25.90;;;17.07;;
70908;SDS011;58554;52.006;5.926;2022-10-18T02:17:40;24.80;;;16.92;;
70908;SDS011;58554;52.006;5.926;2022-10-18T02:20:13;25.70;;;16.17;;
70908;SDS011;58554;52.006;5.926;2022-10-18T02:22:47;25.33;;;16.02;;
70908;SDS011;58554;52.006;5.926;2022-10-18T02:25:19;26.27;;;15.63;;
70908;SDS011;58554;52.006;5.926;2022-10-18T02:27:50;23.45;;;15.48;;
70908;SDS011;58554;52.006;5.926;2022-10-18T02:30:17;24.13;;;15.90;;
70908;SDS011;58554;52.006;5.926;2022-10-18T02:32:50;23.97;;;15.33;;
70908;SDS011;58554;52.006;5.926;2022-10-18T02:35:30;25.45;;;14.98;;
70908;SDS011;58554;52.006;5.926;2022-10-18T02:38:04;21.27;;;15.00;;
70908;SDS011;58554;52.006;5.926;2022-10-18T02:40:36;26.55;;;15.38;;
70908;SDS011;58554;52.006;5.926;2022-10-18T02:43:04;22.97;;;14.93;;
70908;SDS011;58554;52.006;5.926;2022-10-18T02:45:32;22.47;;;15.17;;
70908;SDS011;58554;52.006;5.926;2022-10-18T02:47:59;22.83;;;15.43;;
70908;SDS011;58554;52.006;5.926;2022-10-18T02:50:25;24.03;;;15.67;;
70908;SDS011;58554;52.006;5.926;2022-10-18T02:52:54;22.60;;;15.77;;
70908;SDS011;58554;52.006;5.926;2022-10-18T02:55:21;25.17;;;16.02;;
70908;SDS011;58554;52.006;5.926;2022-10-18T02:57:47;22.93;;;15.27;;
70908;SDS011;58554;52.006;5.926;2022-10-18T03:00:14;24.17;;;15.73;;
70908;SDS011;58554;52.006;5.926;2022-10-18T03:02:41;25.40;;;15.10;;
70908;SDS011;58554;52.006;5.926;2022-10-18T03:05:07;24.13;;;15.50;;
70908;SDS011;58554;52.006;5.926;2022-10-18T03:07:34;25.63;;;15.73;;
70908;SDS011;58554;52.006;5.926;2022-10-18T03:10:03;23.57;;;15.37;;
70908;SDS011;58554;52.006;5.926;2022-10-18T03:12:31;24.93;;;15.07;;
70908;SDS011;58554;52.006;5.926;2022-10-18T03:14:57;21.83;;;15.23;;
70908;SDS011;58554;52.006;5.926;2022-10-18T03:17:24;24.93;;;15.43;;
70908;SDS011;58554;52.006;5.926;2022-10-18T03:19:50;23.33;;;15.77;;
70908;SDS011;58554;52.006;5.926;2022-10-18T03:22:17;22.00;;;15.17;;
70908;SDS011;58554;52.006;5.926;2022-10-18T03:24:43;23.52;;;14.68;;
70908;SDS011;58554;52.006;5.926;2022-10-18T03:27:12;22.48;;;15.27;;
70908;SDS011;58554;52.006;5.926;2022-10-18T03:29:38;22.17;;;14.77;;
70908;SDS011;58554;52.006;5.926;2022-10-18T03:32:05;22.27;;;15.20;;
70908;SDS011;58554;52.006;5.926;2022-10-18T03:34:31;20.97;;;14.27;;
70908;SDS011;58554;52.006;5.926;2022-10-18T03:36:58;21.75;;;15.02;;
70908;SDS011;58554;52.006;5.926;2022-10-18T03:39:24;21.40;;;15.00;;
70908;SDS011;58554;52.006;5.926;2022-10-18T03:41:51;22.67;;;14.80;;
70908;SDS011;58554;52.006;5.926;2022-10-18T03:44:20;22.88;;;14.27;;
70908;SDS011;58554;52.006;5.926;2022-10-18T03:46:46;21.60;;;14.33;;
70908;SDS011;58554;52.006;5.926;2022-10-18T03:49:13;20.25;;;14.25;;
70908;SDS011;58554;52.006;5.926;2022-10-18T03:51:39;21.73;;;14.37;;
70908;SDS011;58554;52.006;5.926;2022-10-18T03:54:05;20.08;;;14.50;;
70908;SDS011;58554;52.006;5.926;2022-10-18T03:56:32;21.30;;;13.97;;
70908;SDS011;58554;52.006;5.926;2022-10-18T03:58:58;22.80;;;14.17;;
70908;SDS011;58554;52.006;5.926;2022-10-18T04:01:27;20.67;;;12.98;;
70908;SDS011;58554;52.006;5.926;2022-10-18T04:03:54;23.03;;;14.10;;
70908;SDS011;58554;52.006;5.926;2022-10-18T04:06:20;21.67;;;14.25;;
70908;SDS011;58554;52.006;5.926;2022-10-18T04:08:47;20.08;;;13.77;;
70908;SDS011;58554;52.006;5.926;2022-10-18T04:11:14;21.40;;;14.00;;
70908;SDS011;58554;52.006;5.926;2022-10-18T04:13:41;20.40;;;14.23;;
70908;SDS011;58554;52.006;5.926;2022-10-18T04:16:07;22.48;;;13.98;;
70908;SDS011;58554;52.006;5.926;2022-10-18T04:18:36;18.87;;;13.97;;
70908;SDS011;58554;52.006;5.926;2022-10-18T04:21:03;20.00;;;14.10;;
70908;SDS011;58554;52.006;5.926;2022-10-18T04:23:30;22.27;;;14.75;;
70908;SDS011;58554;52.006;5.926;2022-10-18T04:25:56;19.57;;;13.13;;
70908;SDS011;58554;52.006;5.926;2022-10-18T04:28:23;21.57;;;13.67;;
70908;SDS011;58554;52.006;5.926;2022-10-18T04:30:49;18.65;;;13.05;;
70908;SDS011;58554;52.006;5.926;2022-10-18T04:33:16;21.47;;;14.00;;
70908;SDS011;58554;52.006;5.926;2022-10-18T04:35:49;19.77;;;13.40;;
70908;SDS011;58554;52.006;5.926;2022-10-18T04:38:17;19.90;;;13.43;;
70908;SDS011;58554;52.006;5.926;2022-10-18T04:40:45;22.50;;;14.00;;
70908;SDS011;58554;52.006;5.926;2022-10-18T04:43:11;20.13;;;13.88;;
70908;SDS011;58554;52.006;5.926;2022-10-18T04:45:37;22.00;;;13.47;;
70908;SDS011;58554;52.006;5.926;2022-10-18T04:48:04;20.15;;;13.82;;
70908;SDS011;58554;52.006;5.926;2022-10-18T04:50:31;19.23;;;13.33;;
70908;SDS011;58554;52.006;5.926;2022-10-18T04:53:00;21.73;;;13.87;;
70908;SDS011;58554;52.006;5.926;2022-10-18T04:55:27;20.97;;;13.23;;
70908;SDS011;58554;52.006;5.926;2022-10-18T04:57:53;22.70;;;13.70;;
70908;SDS011;58554;52.006;5.926;2022-10-18T05:00:20;19.23;;;13.23;;
70908;SDS011;58554;52.006;5.926;2022-10-18T05:02:47;19.87;;;13.63;;
70908;SDS011;58554;52.006;5.926;2022-10-18T05:05:13;20.02;;;13.05;;
70908;SDS011;58554;52.006;5.926;2022-10-18T05:07:40;20.43;;;13.80;;
70908;SDS011;58554;52.006;5.926;2022-10-18T05:10:09;22.83;;;13.40;;
70908;SDS011;58554;52.006;5.926;2022-10-18T05:12:36;18.83;;;12.37;;
70908;SDS011;58554;52.006;5.926;2022-10-18T05:15:03;20.23;;;13.00;;
70908;SDS011;58554;52.006;5.926;2022-10-18T05:17:30;18.55;;;12.52;;
70908;SDS011;58554;52.006;5.926;2022-10-18T05:19:57;18.67;;;12.73;;
70908;SDS011;58554;52.006;5.926;2022-10-18T05:22:23;23.17;;;12.43;;
70908;SDS011;58554;52.006;5.926;2022-10-18T05:24:50;20.80;;;12.27;;
70908;SDS011;58554;52.006;5.926;2022-10-18T05:27:19;20.43;;;13.13;;
70908;SDS011;58554;52.006;5.926;2022-10-18T05:29:45;18.17;;;12.13;;
70908;SDS011;58554;52.006;5.926;2022-10-18T05:32:12;21.20;;;12.07;;
70908;SDS011;58554;52.006;5.926;2022-10-18T05:34:38;23.87;;;12.73;;
70908;SDS011;58554;52.006;5.926;2022-10-18T05:37:04;20.17;;;12.98;;
70908;SDS011;58554;52.006;5.926;2022-10-18T05:39:31;24.30;;;13.10;;
70908;SDS011;58554;52.006;5.926;2022-10-18T05:41:58;22.47;;;12.47;;
70908;SDS011;58554;52.006;5.926;2022-10-18T05:44:27;47.77;;;13.10;;
70908;SDS011;58554;52.006;5.926;2022-10-18T05:46:53;23.93;;;12.70;;
70908;SDS011;58554;52.006;5.926;2022-10-18T05:49:19;26.77;;;12.93;;
70908;SDS011;58554;52.006;5.926;2022-10-18T05:51:46;27.47;;;12.20;;
70908;SDS011;58554;52.006;5.926;2022-10-18T05:54:13;36.00;;;11.83;;
70908;SDS011;58554;52.006;5.926;2022-10-18T05:56:40;22.77;;;11.03;;
70908;SDS011;58554;52.006;5.926;2022-10-18T05:59:06;26.63;;;11.38;;
70908;SDS011;58554;52.006;5.926;2022-10-18T06:01:36;15.87;;;9.43;;
70908;SDS011;58554;52.006;5.926;2022-10-18T06:04:04;19.75;;;9.05;;
70908;SDS011;58554;52.006;5.926;2022-10-18T06:06:31;28.33;;;8.47;;
70908;SDS011;58554;52.006;5.926;2022-10-18T06:08:59;15.67;;;8.30;;
70908;SDS011;58554;52.006;5.926;2022-10-18T06:11:25;12.10;;;7.80;;
70908;SDS011;58554;52.006;5.926;2022-10-18T06:13:52;16.40;;;7.17;;
70908;SDS011;58554;52.006;5.926;2022-10-18T06:16:19;13.80;;;7.63;;
70908;SDS011;58554;52.006;5.926;2022-10-18T06:18:51;19.23;;;7.50;;
70908;SDS011;58554;52.006;5.926;2022-10-18T06:21:20;14.17;;;6.73;;
70908;SDS011;58554;52.006;5.926;2022-10-18T06:23:49;15.10;;;7.20;;
70908;SDS011;58554;52.006;5.926;2022-10-18T06:26:16;9.57;;;6.70;;
70908;SDS011;58554;52.006;5.926;2022-10-18T06:28:43;15.57;;;7.00;;
70908;SDS011;58554;52.006;5.926;2022-10-18T06:31:10;28.77;;;6.80;;
70908;SDS011;58554;52.006;5.926;2022-10-18T06:33:38;14.70;;;7.10;;
70908;SDS011;58554;52.006;5.926;2022-10-18T06:36:09;11.25;;;7.05;;
70908;SDS011;58554;52.006;5.926;2022-10-18T06:38:41;15.43;;;7.20;;
70908;SDS011;58554;52.006;5.926;2022-10-18T06:41:09;15.80;;;6.82;;
70908;SDS011;58554;52.006;5.926;2022-10-18T06:43:36;19.50;;;7.00;;
70908;SDS011;58554;52.006;5.926;2022-10-18T06:46:03;23.57;;;8.00;;
70908;SDS011;58554;52.006;5.926;2022-10-18T06:48:31;18.30;;;8.20;;
70908;SDS011;58554;52.006;5.926;2022-10-18T06:51:00;15.27;;;8.47;;
70908;SDS011;58554;52.006;5.926;2022-10-18T06:53:32;21.35;;;8.70;;
70908;SDS011;58554;52.006;5.926;2022-10-18T06:56:02;18.70;;;8.97;;
70908;SDS011;58554;52.006;5.926;2022-10-18T06:58:31;24.83;;;8.90;;
70908;SDS011;58554;52.006;5.926;2022-10-18T07:01:03;26.90;;;9.23;;
70908;SDS011;58554;52.006;5.926;2022-10-18T07:03:32;19.97;;;9.40;;
70908;SDS011;58554;52.006;5.926;2022-10-18T07:05:59;14.00;;;9.00;;
70908;SDS011;58554;52.006;5.926;2022-10-18T07:08:26;19.40;;;9.83;;
70908;SDS011;58554;52.006;5.926;2022-10-18T07:10:55;16.17;;;9.23;;
70908;SDS011;58554;52.006;5.926;2022-10-18T07:13:22;13.37;;;8.87;;
70908;SDS011;58554;52.006;5.926;2022-10-18T07:16:01;15.98;;;9.30;;
70908;SDS011;58554;52.006;5.926;2022-10-18T07:18:31;15.37;;;9.03;;
70908;SDS011;58554;52.006;5.926;2022-10-18T07:20:59;18.35;;;10.20;;
70908;SDS011;58554;52.006;5.926;2022-10-18T07:23:27;19.03;;;9.47;;
70908;SDS011;58554;52.006;5.926;2022-10-18T07:25:56;17.65;;;9.30;;
70908;SDS011;58554;52.006;5.926;2022-10-18T07:28:22;14.50;;;9.37;;
70908;SDS011;58554;52.006;5.926;2022-10-18T07:30:49;18.40;;;9.60;;
70908;SDS011;58554;52.006;5.926;2022-10-18T07:33:15;16.87;;;8.47;;
70908;SDS011;58554;52.006;5.926;2022-10-18T07:35:42;16.73;;;8.77;;
70908;SDS011;58554;52.006;5.926;2022-10-18T07:38:08;16.10;;;8.80;;
70908;SDS011;58554;52.006;5.926;2022-10-18T07:40:34;14.37;;;8.70;;
70908;SDS011;58554;52.006;5.926;2022-10-18T07:43:03;18.13;;;9.20;;
70908;SDS011;58554;52.006;5.926;2022-10-18T07:45:30;16.20;;;8.23;;
70908;SDS011;58554;52.006;5.926;2022-10-18T07:47:57;15.15;;;8.02;;
70908;SDS011;58554;52.006;5.926;2022-10-18T07:50:24;15.80;;;8.17;;
70908;SDS011;58554;52.006;5.926;2022-10-18T07:52:50;13.67;;;7.73;;
70908;SDS011;58554;52.006;5.926;2022-10-18T07:55:16;15.67;;;9.33;;
70908;SDS011;58554;52.006;5.926;2022-10-18T07:57:43;15.00;;;8.43;;
70908;SDS011;58554;52.006;5.926;2022-10-18T08:00:13;14.00;;;8.20;;
70908;SDS011;58554;52.006;5.926;2022-10-18T08:02:40;15.70;;;8.47;;
70908;SDS011;58554;52.006;5.926;2022-10-18T08:05:06;16.20;;;8.83;;
70908;SDS011;58554;52.006;5.926;2022-10-18T08:07:34;14.73;;;8.20;;
70908;SDS011;58554;52.006;5.926;2022-10-18T08:10:00;18.37;;;8.93;;
70908;SDS011;58554;52.006;5.926;2022-10-18T08:12:27;15.17;;;8.37;;
70908;SDS011;58554;52.006;5.926;2022-10-18T08:14:53;17.37;;;9.07;;
70908;SDS011;58554;52.006;5.926;2022-10-18T08:17:22;17.85;;;9.18;;
70908;SDS011;58554;52.006;5.926;2022-10-18T08:19:49;17.33;;;8.90;;
70908;SDS011;58554;52.006;5.926;2022-10-18T08:22:15;16.65;;;8.90;;
70908;SDS011;58554;52.006;5.926;2022-10-18T08:24:41;19.83;;;8.83;;
70908;SDS011;58554;52.006;5.926;2022-10-18T08:27:08;18.00;;;9.13;;
70908;SDS011;58554;52.006;5.926;2022-10-18T08:29:34;15.43;;;8.75;;
70908;SDS011;58554;52.006;5.926;2022-10-18T08:32:01;16.10;;;7.87;;
70908;SDS011;58554;52.006;5.926;2022-10-18T08:34:30;17.05;;;8.05;;
70908;SDS011;58554;52.006;5.926;2022-10-18T08:36:56;14.03;;;7.00;;
70908;SDS011;58554;52.006;5.926;2022-10-18T08:39:23;15.97;;;7.30;;
70908;SDS011;58554;52.006;5.926;2022-10-18T08:41:56;14.43;;;6.77;;
70908;SDS011;58554;52.006;5.926;2022-10-18T08:44:44;11.83;;;6.20;;
70908;SDS011;58554;52.006;5.926;2022-10-18T08:47:15;15.10;;;7.27;;
70908;SDS011;58554;52.006;5.926;2022-10-18T08:49:48;14.47;;;6.93;;
70908;SDS011;58554;52.006;5.926;2022-10-18T08:52:23;12.50;;;6.20;;
70908;SDS011;58554;52.006;5.926;2022-10-18T08:54:59;14.30;;;6.32;;
70908;SDS011;58554;52.006;5.926;2022-10-18T08:57:31;13.93;;;5.83;;
70908;SDS011;58554;52.006;5.926;2022-10-18T08:59:58;13.17;;;5.90;;
70908;SDS011;58554;52.006;5.926;2022-10-18T09:02:32;12.10;;;5.50;;
70908;SDS011;58554;52.006;5.926;2022-10-18T09:05:21;12.40;;;5.73;;
70908;SDS011;58554;52.006;5.926;2022-10-18T09:08:11;13.45;;;6.32;;
70908;SDS011;58554;52.006;5.926;2022-10-18T09:11:09;11.17;;;5.00;;
70908;SDS011;58554;52.006;5.926;2022-10-18T09:13:59;9.35;;;5.07;;
70908;SDS011;58554;52.006;5.926;2022-10-18T09:17:04;11.77;;;5.43;;
70908;SDS011;58554;52.006;5.926;2022-10-18T09:19:45;8.80;;;4.03;;
70908;SDS011;58554;52.006;5.926;2022-10-18T09:22:32;9.90;;;4.03;;
70908;SDS011;58554;52.006;5.926;2022-10-18T09:25:16;7.57;;;3.83;;
70908;SDS011;58554;52.006;5.926;2022-10-18T09:27:56;13.37;;;4.10;;
70908;SDS011;58554;52.006;5.926;2022-10-18T09:30:44;9.27;;;3.35;;
70908;SDS011;58554;52.006;5.926;2022-10-18T09:33:35;8.55;;;3.55;;
70908;SDS011;58554;52.006;5.926;2022-10-18T09:36:19;10.82;;;3.85;;
70908;SDS011;58554;52.006;5.926;2022-10-18T09:38:52;7.93;;;3.00;;
70908;SDS011;58554;52.006;5.926;2022-10-18T09:41:24;7.63;;;2.83;;
70908;SDS011;58554;52.006;5.926;2022-10-18T09:43:57;15.73;;;4.20;;
70908;SDS011;58554;52.006;5.926;2022-10-18T09:46:31;8.10;;;2.60;;
70908;SDS011;58554;52.006;5.926;2022-10-18T09:49:08;6.47;;;2.40;;
70908;SDS011;58554;52.006;5.926;2022-10-18T09:51:43;8.05;;;2.10;;
70908;SDS011;58554;52.006;5.926;2022-10-18T09:54:18;5.40;;;2.30;;
70908;SDS011;58554;52.006;5.926;2022-10-18T09:56:54;4.17;;;1.83;;
70908;SDS011;58554;52.006;5.926;2022-10-18T09:59:31;8.10;;;2.40;;
70908;SDS011;58554;52.006;5.926;2022-10-18T10:02:03;7.35;;;2.03;;
70908;SDS011;58554;52.006;5.926;2022-10-18T10:04:30;6.88;;;2.05;;
70908;SDS011;58554;52.006;5.926;2022-10-18T10:06:58;4.10;;;1.90;;
70908;SDS011;58554;52.006;5.926;2022-10-18T10:09:30;4.80;;;1.60;;
70908;SDS011;58554;52.006;5.926;2022-10-18T10:12:21;8.23;;;1.90;;
70908;SDS011;58554;52.006;5.926;2022-10-18T10:14:52;6.17;;;2.00;;
70908;SDS011;58554;52.006;5.926;2022-10-18T10:17:20;6.27;;;1.57;;
70908;SDS011;58554;52.006;5.926;2022-10-18T10:19:57;6.93;;;1.70;;
70908;SDS011;58554;52.006;5.926;2022-10-18T10:22:31;5.53;;;1.43;;
70908;SDS011;58554;52.006;5.926;2022-10-18T10:25:04;6.57;;;1.80;;
70908;SDS011;58554;52.006;5.926;2022-10-18T10:27:44;4.32;;;1.50;;
70908;SDS011;58554;52.006;5.926;2022-10-18T10:30:20;5.55;;;1.70;;
70908;SDS011;58554;52.006;5.926;2022-10-18T10:32:51;4.77;;;1.67;;
70908;SDS011;58554;52.006;5.926;2022-10-18T10:35:21;6.95;;;1.38;;
70908;SDS011;58554;52.006;5.926;2022-10-18T10:37:54;4.93;;;1.17;;
70908;SDS011;58554;52.006;5.926;2022-10-18T10:40:24;4.73;;;1.20;;
70908;SDS011;58554;52.006;5.926;2022-10-18T10:43:03;5.60;;;1.43;;
70908;SDS011;58554;52.006;5.926;2022-10-18T10:45:40;6.70;;;1.47;;
70908;SDS011;58554;52.006;5.926;2022-10-18T10:48:23;4.03;;;1.20;;
70908;SDS011;58554;52.006;5.926;2022-10-18T10:50:53;5.45;;;1.25;;
70908;SDS011;58554;52.006;5.926;2022-10-18T10:53:39;6.40;;;1.40;;
70908;SDS011;58554;52.006;5.926;2022-10-18T10:56:17;5.03;;;1.27;;
70908;SDS011;58554;52.006;5.926;2022-10-18T10:58:50;3.83;;;1.07;;
70908;SDS011;58554;52.006;5.926;2022-10-18T11:04:20;5.75;;;1.33;;
70908;SDS011;58554;52.006;5.926;2022-10-18T11:07:02;5.23;;;1.60;;
70908;SDS011;58554;52.006;5.926;2022-10-18T11:09:50;7.07;;;1.60;;
70908;SDS011;58554;52.006;5.926;2022-10-18T11:12:30;6.27;;;1.20;;
70908;SDS011;58554;52.006;5.926;2022-10-18T11:15:06;5.23;;;1.40;;
70908;SDS011;58554;52.006;5.926;2022-10-18T11:17:46;4.20;;;0.80;;
70908;SDS011;58554;52.006;5.926;2022-10-18T11:20:28;9.95;;;2.05;;
70908;SDS011;58554;52.006;5.926;2022-10-18T11:23:05;4.53;;;1.30;;
70908;SDS011;58554;52.006;5.926;2022-10-18T11:32:06;7.23;;;1.40;;
70908;SDS011;58554;52.006;5.926;2022-10-18T11:34:52;5.47;;;1.15;;
70908;SDS011;58554;52.006;5.926;2022-10-18T11:37:39;4.83;;;1.20;;
70908;SDS011;58554;52.006;5.926;2022-10-18T11:40:39;5.38;;;1.23;;
70908;SDS011;58554;52.006;5.926;2022-10-18T11:43:23;3.53;;;1.13;;
70908;SDS011;58554;52.006;5.926;2022-10-18T11:46:05;3.97;;;1.10;;
70908;SDS011;58554;52.006;5.926;2022-10-18T11:48:47;4.20;;;0.90;;
70908;SDS011;58554;52.006;5.926;2022-10-18T11:51:42;5.00;;;1.00;;
70908;SDS011;58554;52.006;5.926;2022-10-18T11:54:28;3.40;;;1.10;;
70908;SDS011;58554;52.006;5.926;2022-10-18T11:57:19;3.07;;;0.90;;
70908;SDS011;58554;52.006;5.926;2022-10-18T12:00:14;6.10;;;1.50;;
70908;SDS011;58554;52.006;5.926;2022-10-18T12:02:58;6.03;;;1.70;;
70908;SDS011;58554;52.006;5.926;2022-10-18T12:05:40;4.30;;;1.20;;
70908;SDS011;58554;52.006;5.926;2022-10-18T12:08:11;3.47;;;1.40;;
70908;SDS011;58554;52.006;5.926;2022-10-18T12:10:44;5.65;;;1.50;;
70908;SDS011;58554;52.006;5.926;2022-10-18T12:13:17;5.50;;;1.50;;
70908;SDS011;58554;52.006;5.926;2022-10-18T12:15:47;6.07;;;1.42;;
70908;SDS011;58554;52.006;5.926;2022-10-18T12:18:20;4.30;;;1.60;;
70908;SDS011;58554;52.006;5.926;2022-10-18T12:20:52;4.07;;;1.33;;
70908;SDS011;58554;52.006;5.926;2022-10-18T12:23:28;4.15;;;1.48;;
70908;SDS011;58554;52.006;5.926;2022-10-18T12:26:04;3.93;;;1.30;;
70908;SDS011;58554;52.006;5.926;2022-10-18T12:28:37;7.57;;;1.73;;
70908;SDS011;58554;52.006;5.926;2022-10-18T12:31:21;3.20;;;1.50;;
70908;SDS011;58554;52.006;5.926;2022-10-18T12:33:58;4.80;;;1.40;;
70908;SDS011;58554;52.006;5.926;2022-10-18T12:36:47;5.43;;;1.50;;
70908;SDS011;58554;52.006;5.926;2022-10-18T12:39:27;3.13;;;1.20;;
70908;SDS011;58554;52.006;5.926;2022-10-18T12:42:02;7.38;;;1.63;;
70908;SDS011;58554;52.006;5.926;2022-10-18T12:44:30;4.20;;;1.30;;
70908;SDS011;58554;52.006;5.926;2022-10-18T12:46:59;5.83;;;1.50;;
70908;SDS011;58554;52.006;5.926;2022-10-18T12:49:32;6.30;;;1.60;;
70908;SDS011;58554;52.006;5.926;2022-10-18T12:52:03;4.80;;;1.20;;
70908;SDS011;58554;52.006;5.926;2022-10-18T12:54:33;5.53;;;1.27;;
70908;SDS011;58554;52.006;5.926;2022-10-18T12:57:03;4.47;;;1.03;;
70908;SDS011;58554;52.006;5.926;2022-10-18T12:59:42;2.58;;;0.90;;
70908;SDS011;58554;52.006;5.926;2022-10-18T13:02:18;3.53;;;0.80;;
70908;SDS011;58554;52.006;5.926;2022-10-18T13:04:56;6.03;;;1.20;;
70908;SDS011;58554;52.006;5.926;2022-10-18T13:07:34;3.03;;;0.77;;
70908;SDS011;58554;52.006;5.926;2022-10-18T13:13:04;4.47;;;0.80;;
70908;SDS011;58554;52.006;5.926;2022-10-18T13:19:08;3.93;;;0.73;;
70908;SDS011;58554;52.006;5.926;2022-10-18T13:21:49;5.27;;;0.93;;
70908;SDS011;58554;52.006;5.926;2022-10-18T13:24:36;2.87;;;0.90;;
70908;SDS011;58554;52.006;5.926;2022-10-18T13:27:24;4.70;;;0.90;;
70908;SDS011;58554;52.006;5.926;2022-10-18T13:30:17;4.73;;;0.90;;
70908;SDS011;58554;52.006;5.926;2022-10-18T13:33:18;3.63;;;0.70;;
70908;SDS011;58554;52.006;5.926;2022-10-18T13:35:57;6.03;;;1.10;;
70908;SDS011;58554;52.006;5.926;2022-10-18T13:38:38;5.07;;;1.00;;
70908;SDS011;58554;52.006;5.926;2022-10-18T13:41:10;4.77;;;1.13;;
70908;SDS011;58554;52.006;5.926;2022-10-18T13:43:56;4.67;;;1.10;;
70908;SDS011;58554;52.006;5.926;2022-10-18T13:47:07;4.23;;;0.70;;
70908;SDS011;58554;52.006;5.926;2022-10-18T13:49:39;7.20;;;1.10;;
70908;SDS011;58554;52.006;5.926;2022-10-18T13:52:34;3.57;;;0.80;;
70908;SDS011;58554;52.006;5.926;2022-10-18T13:55:43;3.38;;;0.95;;
70908;SDS011;58554;52.006;5.926;2022-10-18T13:58:28;3.80;;;1.00;;
70908;SDS011;58554;52.006;5.926;2022-10-18T14:01:13;4.70;;;1.10;;
70908;SDS011;58554;52.006;5.926;2022-10-18T14:07:02;5.47;;;1.13;;
70908;SDS011;58554;52.006;5.926;2022-10-18T14:09:33;5.60;;;0.90;;
70908;SDS011;58554;52.006;5.926;2022-10-18T14:12:16;4.50;;;0.90;;
70908;SDS011;58554;52.006;5.926;2022-10-18T14:14:54;3.17;;;0.90;;
70908;SDS011;58554;52.006;5.926;2022-10-18T14:17:32;3.58;;;0.90;;
70908;SDS011;58554;52.006;5.926;2022-10-18T14:20:10;4.20;;;1.00;;
70908;SDS011;58554;52.006;5.926;2022-10-18T14:22:49;3.57;;;0.90;;
70908;SDS011;58554;52.006;5.926;2022-10-18T14:25:27;3.27;;;1.03;;
70908;SDS011;58554;52.006;5.926;2022-10-18T14:28:09;2.63;;;0.90;;
70908;SDS011;58554;52.006;5.926;2022-10-18T14:30:51;2.77;;;0.90;;
70908;SDS011;58554;52.006;5.926;2022-10-18T14:33:30;3.15;;;0.90;;
70908;SDS011;58554;52.006;5.926;2022-10-18T14:36:05;5.63;;;1.10;;
70908;SDS011;58554;52.006;5.926;2022-10-18T14:38:37;3.40;;;1.13;;
70908;SDS011;58554;52.006;5.926;2022-10-18T14:41:14;3.80;;;1.00;;
70908;SDS011;58554;52.006;5.926;2022-10-18T14:43:50;3.08;;;1.15;;
70908;SDS011;58554;52.006;5.926;2022-10-18T14:46:19;2.57;;;1.00;;
70908;SDS011;58554;52.006;5.926;2022-10-18T14:48:55;4.40;;;1.10;;
70908;SDS011;58554;52.006;5.926;2022-10-18T14:51:24;3.17;;;1.03;;
70908;SDS011;58554;52.006;5.926;2022-10-18T14:53:55;3.53;;;1.10;;
70908;SDS011;58554;52.006;5.926;2022-10-18T14:56:23;4.10;;;1.10;;
70908;SDS011;58554;52.006;5.926;2022-10-18T14:58:57;4.30;;;1.00;;
70908;SDS011;58554;52.006;5.926;2022-10-18T15:01:30;8.30;;;1.10;;
70908;SDS011;58554;52.006;5.926;2022-10-18T15:03:58;3.57;;;1.23;;
70908;SDS011;58554;52.006;5.926;2022-10-18T15:06:31;5.27;;;1.47;;
70908;SDS011;58554;52.006;5.926;2022-10-18T15:09:00;5.13;;;1.63;;
70908;SDS011;58554;52.006;5.926;2022-10-18T15:11:29;5.30;;;1.70;;
70908;SDS011;58554;52.006;5.926;2022-10-18T15:13:59;5.33;;;1.30;;
70908;SDS011;58554;52.006;5.926;2022-10-18T15:16:30;5.20;;;1.47;;
70908;SDS011;58554;52.006;5.926;2022-10-18T15:18:59;3.67;;;1.57;;
70908;SDS011;58554;52.006;5.926;2022-10-18T15:21:33;2.87;;;1.37;;
70908;SDS011;58554;52.006;5.926;2022-10-18T15:26:59;3.27;;;1.50;;
70908;SDS011;58554;52.006;5.926;2022-10-18T15:29:42;3.63;;;1.17;;
70908;SDS011;58554;52.006;5.926;2022-10-18T15:32:13;5.63;;;1.00;;
70908;SDS011;58554;52.006;5.926;2022-10-18T15:34:46;5.50;;;0.93;;